Terminal Aerodrome Forecast
Issued by NWS

Home | Current Version | Previous Version | Text Only | Print | Product List | Glossary On
Versions: 1 2 3 4 5 6 7 8 9 10 11 12 13
000
FTUS43 KGRR 201700
TAFJXN
TAF
KJXN 201740Z 2018/2118 22015G25KT P6SM VCTS BKN025CB
      TEMPO 2021/2023 2SM -TSRA OVC012CB
     FM210400 27004KT P6SM OVC050
     FM211200 30006KT P6SM OVC015=

USA.gov is the U.S. government's official web portal to all federal, state and local government web resources and services.